Time;durP1;ratioP1;P1;durP2;ratioP2;P2;SDS_P1;SDS_P2;PMS_P1;PMS_P2;Temp;Humidity;BMP_temperature;BMP_pressure;BME280_temperature;BME280_humidity;BME280_pressure;Samples;Min_cycle;Max_cycle;Signal;HPM_P1;HPM_P2
2023/10/01 00:01:53;;;;;;;6.30;3.00;;;;;;;;;;6246134;22;20182;-93
2023/10/01 00:05:00;;;;;;;9.90;3.75;;;;;;;;;;6244954;22;20186;-92
2023/10/01 00:08:08;;;;;;;9.43;3.67;;;;;;;;;;6245895;22;20178;-91
2023/10/01 00:11:14;;;;;;;6.90;3.55;;;;;;;;;;6246141;22;20171;-92
2023/10/01 00:14:20;;;;;;;7.22;3.72;;;;;;;;;;6244198;22;20229;-93
2023/10/01 00:17:25;;;;;;;9.38;3.80;;;;;;;;;;6247375;22;20150;-93
2023/10/01 00:20:33;;;;;;;12.23;4.10;;;;;;;;;;6246420;22;20189;-91
2023/10/01 00:23:38;;;;;;;12.30;4.13;;;;;;;;;;6247644;22;20209;-93
2023/10/01 00:26:43;;;;;;;9.68;5.00;;;;;;;;;;6247582;22;20166;-92
2023/10/01 00:29:49;;;;;;;8.15;4.55;;;;;;;;;;6246720;22;20174;-92
2023/10/01 00:32:55;;;;;;;14.15;4.45;;;;;;;;;;6246205;23;20162;-92
2023/10/01 00:36:04;;;;;;;15.57;4.60;;;;;;;;;;6245540;22;20169;-90
2023/10/01 00:39:09;;;;;;;11.77;4.80;;;;;;;;;;6247705;22;20237;-93
2023/10/01 00:42:16;;;;;;;22.35;5.35;;;;;;;;;;6246945;22;20170;-91
2023/10/01 00:45:21;;;;;;;16.70;5.25;;;;;;;;;;6246700;22;20159;-92
2023/10/01 00:48:27;;;;;;;20.50;5.85;;;;;;;;;;6245020;22;20614;-91
2023/10/01 00:51:34;;;;;;;15.63;4.97;;;;;;;;;;6246745;22;20150;-91
2023/10/01 00:54:40;;;;;;;23.70;5.53;;;;;;;;;;6246858;22;20199;-92
2023/10/01 00:57:49;;;;;;;27.77;4.65;;;;;;;;;;6245705;23;20163;-92
2023/10/01 01:00:55;;;;;;;14.15;4.82;;;;;;;;;;6247898;22;20221;-91
2023/10/01 01:04:07;;;;;;;16.50;5.47;;;;;;;;;;6245919;22;20568;-91
2023/10/01 01:07:15;;;;;;;22.63;5.13;;;;;;;;;;6246527;22;20170;-90
2023/10/01 01:10:25;;;;;;;11.32;4.63;;;;;;;;;;6248030;23;20218;-93
2023/10/01 01:13:33;;;;;;;31.95;4.35;;;;;;;;;;6248301;22;20178;-91
2023/10/01 01:16:40;;;;;;;21.02;4.15;;;;;;;;;;6247755;22;20248;-94
2023/10/01 01:19:52;;;;;;;18.73;3.88;;;;;;;;;;6247559;22;20194;-91
2023/10/01 01:26:33;;;;;;;30.38;4.72;;;;;;;;;;6267468;22;20175;-94
2023/10/01 01:29:44;;;;;;;16.27;4.70;;;;;;;;;;6247437;22;20162;-93
2023/10/01 01:32:53;;;;;;;9.98;4.45;;;;;;;;;;6248507;22;20328;-92
2023/10/01 01:35:59;;;;;;;13.15;4.75;;;;;;;;;;6248503;22;20499;-92
2023/10/01 01:39:12;;;;;;;25.35;5.10;;;;;;;;;;6248757;22;20147;-91
2023/10/01 01:42:21;;;;;;;15.52;4.90;;;;;;;;;;6247617;22;20166;-92
2023/10/01 01:45:27;;;;;;;13.50;4.10;;;;;;;;;;6247878;23;20190;-92
2023/10/01 01:48:34;;;;;;;18.83;4.28;;;;;;;;;;6245990;22;20165;-92
2023/10/01 01:51:40;;;;;;;10.75;4.50;;;;;;;;;;6229802;22;20219;-92
2023/10/01 01:54:47;;;;;;;44.63;4.10;;;;;;;;;;6247723;22;20751;-92
2023/10/01 01:58:06;;;;;;;10.93;5.20;;;;;;;;;;6245988;22;20158;-93
2023/10/01 02:01:23;;;;;;;34.13;4.93;;;;;;;;;;6247107;22;20213;-91
2023/10/01 02:04:28;;;;;;;13.70;4.07;;;;;;;;;;6246931;22;20170;-91
2023/10/01 02:07:33;;;;;;;13.85;4.38;;;;;;;;;;6247446;22;20170;-94
2023/10/01 02:10:46;;;;;;;9.13;3.70;;;;;;;;;;6247371;22;20212;-94
2023/10/01 02:13:54;;;;;;;14.60;4.05;;;;;;;;;;6248058;22;20162;-90
2023/10/01 02:17:13;;;;;;;15.43;3.80;;;;;;;;;;6246097;22;20231;-93
2023/10/01 02:20:23;;;;;;;9.20;3.47;;;;;;;;;;6246942;22;20179;-93
2023/10/01 02:23:33;;;;;;;17.20;3.80;;;;;;;;;;6246296;22;20221;-92
2023/10/01 02:26:40;;;;;;;10.02;3.28;;;;;;;;;;6246405;22;20183;-92
2023/10/01 02:33:18;;;;;;;21.38;3.72;;;;;;;;;;6246265;22;20162;-92
2023/10/01 02:36:24;;;;;;;18.17;3.75;;;;;;;;;;6245944;22;20163;-93
2023/10/01 02:39:29;;;;;;;37.47;4.20;;;;;;;;;;6246872;22;20202;-93
2023/10/01 02:42:37;;;;;;;13.90;3.50;;;;;;;;;;6246386;22;20161;-94
2023/10/01 02:45:42;;;;;;;25.00;4.15;;;;;;;;;;6246002;23;20161;-92
2023/10/01 02:48:48;;;;;;;48.25;4.90;;;;;;;;;;6245882;22;20162;-93
2023/10/01 02:51:59;;;;;;;12.55;4.00;;;;;;;;;;6246687;23;20190;-93
2023/10/01 02:55:17;;;;;;;16.20;3.70;;;;;;;;;;6246945;22;20167;-91
2023/10/01 02:58:27;;;;;;;40.33;4.45;;;;;;;;;;6246489;22;20177;-93
2023/10/01 03:01:32;;;;;;;44.35;4.63;;;;;;;;;;6249502;22;20210;-93
2023/10/01 03:04:38;;;;;;;13.55;3.70;;;;;;;;;;6249043;22;20186;-90
2023/10/01 03:07:50;;;;;;;65.63;4.57;;;;;;;;;;6246021;22;20214;-92
2023/10/01 03:10:56;;;;;;;15.52;4.22;;;;;;;;;;6246525;22;20171;-91
2023/10/01 03:14:10;;;;;;;21.75;4.00;;;;;;;;;;6247182;22;20238;-91
2023/10/01 03:17:18;;;;;;;11.07;3.80;;;;;;;;;;6246151;22;20187;-94
2023/10/01 03:23:51;;;;;;;7.38;3.50;;;;;;;;;;6247501;22;20167;-91
2023/10/01 03:27:04;;;;;;;12.05;3.55;;;;;;;;;;6247385;22;20174;-92
2023/10/01 03:30:20;;;;;;;10.75;3.85;;;;;;;;;;6246607;22;20224;-93
2023/10/01 03:33:25;;;;;;;8.18;3.55;;;;;;;;;;6245222;23;20154;-92
2023/10/01 03:36:42;;;;;;;12.55;3.80;;;;;;;;;;6244997;22;20151;-92
2023/10/01 03:39:50;;;;;;;6.43;4.00;;;;;;;;;;6244770;22;20672;-94
2023/10/01 03:42:55;;;;;;;30.67;3.90;;;;;;;;;;6243925;22;20175;-93
2023/10/01 03:46:19;;;;;;;11.18;3.58;;;;;;;;;;6243763;22;20166;-94
2023/10/01 03:49:37;;;;;;;19.75;3.60;;;;;;;;;;6243618;22;20171;-93
2023/10/01 03:52:51;;;;;;;26.65;3.75;;;;;;;;;;6246138;22;20275;-93
2023/10/01 03:55:57;;;;;;;45.72;4.72;;;;;;;;;;6244927;22;20209;-92
2023/10/01 03:59:15;;;;;;;12.60;3.67;;;;;;;;;;6245236;23;20270;-90
2023/10/01 04:02:46;;;;;;;17.20;3.80;;;;;;;;;;6245477;22;20190;-92
2023/10/01 04:05:56;;;;;;;28.73;4.40;;;;;;;;;;6245990;22;20167;-93
2023/10/01 04:09:06;;;;;;;20.50;3.78;;;;;;;;;;6245960;22;20167;-91
2023/10/01 04:12:19;;;;;;;9.10;3.70;;;;;;;;;;6244719;22;20249;-93
2023/10/01 04:15:28;;;;;;;8.23;3.92;;;;;;;;;;6245373;22;20241;-93
2023/10/01 04:18:36;;;;;;;7.57;3.30;;;;;;;;;;6245827;22;20205;-93
2023/10/01 04:21:43;;;;;;;6.65;3.58;;;;;;;;;;6246454;22;20697;-91
2023/10/01 04:25:00;;;;;;;9.23;3.50;;;;;;;;;;6245967;22;20614;-91
2023/10/01 04:28:08;;;;;;;8.45;3.60;;;;;;;;;;6246443;22;20221;-93
2023/10/01 04:31:15;;;;;;;6.40;3.20;;;;;;;;;;6247122;22;20178;-92
2023/10/01 04:34:23;;;;;;;13.93;3.28;;;;;;;;;;6246864;22;20498;-92
2023/10/01 04:37:42;;;;;;;10.85;2.90;;;;;;;;;;6244890;22;20170;-93
2023/10/01 04:40:48;;;;;;;6.18;3.13;;;;;;;;;;6245020;22;20151;-93
2023/10/01 04:43:55;;;;;;;10.27;2.83;;;;;;;;;;6245894;22;20175;-93
2023/10/01 04:47:30;;;;;;;6.45;3.15;;;;;;;;;;6245582;22;20227;-93
2023/10/01 04:50:29;;;;;;;5.63;2.88;;;;;;;;;;6244503;22;20167;-92
2023/10/01 04:53:35;;;;;;;8.35;3.35;;;;;;;;;;6245027;22;20206;-93
2023/10/01 04:56:41;;;;;;;4.47;3.05;;;;;;;;;;6246379;22;20166;-92
2023/10/01 04:59:57;;;;;;;11.13;2.97;;;;;;;;;;6247971;22;20146;-91
2023/10/01 05:03:06;;;;;;;7.13;2.85;;;;;;;;;;6246576;22;20170;-93
2023/10/01 05:06:13;;;;;;;5.82;2.85;;;;;;;;;;6246515;22;20154;-93
2023/10/01 05:09:22;;;;;;;5.78;2.58;;;;;;;;;;6245307;22;20166;-93
2023/10/01 05:12:30;;;;;;;4.47;2.90;;;;;;;;;;6245778;22;20171;-92
2023/10/01 05:15:36;;;;;;;4.28;2.70;;;;;;;;;;6246226;22;20155;-93
2023/10/01 05:18:43;;;;;;;6.50;2.90;;;;;;;;;;6245518;23;20166;-91
2023/10/01 05:21:54;;;;;;;7.03;3.22;;;;;;;;;;6246946;22;20689;-92
2023/10/01 05:25:00;;;;;;;5.45;3.42;;;;;;;;;;6246809;22;20199;-92
2023/10/01 05:28:23;;;;;;;5.60;3.22;;;;;;;;;;6246656;22;20167;-91
2023/10/01 05:31:29;;;;;;;5.97;3.60;;;;;;;;;;6245235;22;20174;-93
2023/10/01 05:34:35;;;;;;;5.85;3.58;;;;;;;;;;6246193;22;20167;-93
2023/10/01 05:37:45;;;;;;;6.30;3.30;;;;;;;;;;6246810;22;20167;-95
2023/10/01 05:40:54;;;;;;;6.18;3.67;;;;;;;;;;6245098;23;20217;-92
2023/10/01 05:44:01;;;;;;;27.30;3.50;;;;;;;;;;6247197;22;20170;-93
2023/10/01 05:47:06;;;;;;;9.80;3.33;;;;;;;;;;6247088;22;20150;-92
2023/10/01 05:50:14;;;;;;;8.50;3.88;;;;;;;;;;6248930;23;20219;-93
2023/10/01 05:53:21;;;;;;;9.60;3.67;;;;;;;;;;6247896;22;20191;-91
2023/10/01 05:56:36;;;;;;;10.27;4.63;;;;;;;;;;6247978;23;20166;-91
2023/10/01 05:59:41;;;;;;;9.15;3.60;;;;;;;;;;6249102;22;20214;-91
2023/10/01 06:02:48;;;;;;;10.90;4.35;;;;;;;;;;6248846;22;20178;-93
2023/10/01 06:05:58;;;;;;;5.32;3.70;;;;;;;;;;6248859;22;20218;-93
2023/10/01 06:09:09;;;;;;;8.75;3.83;;;;;;;;;;6249513;23;20171;-93
2023/10/01 06:12:17;;;;;;;3.90;3.25;;;;;;;;;;6249945;22;20170;-93
2023/10/01 06:15:29;;;;;;;5.75;3.67;;;;;;;;;;6248765;22;20210;-94
2023/10/01 06:18:41;;;;;;;4.47;3.00;;;;;;;;;;6247746;22;20509;-91
2023/10/01 06:21:47;;;;;;;4.53;3.22;;;;;;;;;;6246867;22;20210;-92
2023/10/01 06:24:54;;;;;;;5.15;3.60;;;;;;;;;;6247234;22;20159;-92
2023/10/01 06:28:07;;;;;;;5.40;3.70;;;;;;;;;;6245734;22;20150;-92
2023/10/01 06:31:16;;;;;;;5.07;3.55;;;;;;;;;;6248496;22;20174;-92
2023/10/01 06:34:23;;;;;;;6.32;3.72;;;;;;;;;;6248855;22;20174;-90
2023/10/01 06:37:45;;;;;;;5.07;3.70;;;;;;;;;;6245279;23;20174;-93
2023/10/01 06:40:52;;;;;;;6.18;3.78;;;;;;;;;;6246015;22;20170;-92
2023/10/01 06:44:01;;;;;;;5.85;3.75;;;;;;;;;;6264859;22;20155;-93
2023/10/01 06:47:14;;;;;;;6.03;3.80;;;;;;;;;;6247787;22;20170;-92
2023/10/01 06:50:24;;;;;;;6.82;4.10;;;;;;;;;;6247565;22;20239;-94
2023/10/01 06:56:51;;;;;;;5.53;3.92;;;;;;;;;;6248124;22;20171;-93
2023/10/01 06:59:57;;;;;;;7.32;4.47;;;;;;;;;;6246646;22;20162;-93
2023/10/01 07:03:17;;;;;;;6.85;4.47;;;;;;;;;;6247723;22;20201;-93
2023/10/01 07:06:23;;;;;;;6.20;4.05;;;;;;;;;;6244093;22;20174;-94
2023/10/01 07:09:34;;;;;;;6.47;4.22;;;;;;;;;;6227668;22;20200;-95
2023/10/01 07:12:57;;;;;;;6.75;4.32;;;;;;;;;;6247427;22;20171;-93
2023/10/01 07:16:03;;;;;;;5.68;3.83;;;;;;;;;;6247264;22;20219;-94
2023/10/01 07:19:11;;;;;;;6.65;4.50;;;;;;;;;;6246339;22;20162;-93
2023/10/01 07:22:25;;;;;;;7.80;5.05;;;;;;;;;;6248934;22;20193;-92
2023/10/01 07:25:37;;;;;;;8.52;4.60;;;;;;;;;;6250708;22;20167;-95
2023/10/01 07:28:52;;;;;;;9.30;4.32;;;;;;;;;;6243441;22;20166;-91
2023/10/01 07:31:58;;;;;;;6.72;4.43;;;;;;;;;;6243314;22;20220;-91
2023/10/01 07:35:06;;;;;;;9.18;5.00;;;;;;;;;;6243176;22;20167;-89
2023/10/01 07:38:15;;;;;;;7.50;4.60;;;;;;;;;;6242250;22;20230;-89
2023/10/01 07:41:23;;;;;;;10.88;4.80;;;;;;;;;;6243373;22;20170;-91
2023/10/01 07:44:30;;;;;;;6.70;4.70;;;;;;;;;;6244065;22;20151;-91
2023/10/01 07:47:38;;;;;;;8.15;4.70;;;;;;;;;;6243480;22;20163;-89
2023/10/01 07:50:42;;;;;;;8.18;5.03;;;;;;;;;;6245906;22;20171;-91
2023/10/01 07:53:48;;;;;;;7.95;4.47;;;;;;;;;;6244827;22;20155;-89
2023/10/01 07:56:56;;;;;;;6.65;3.97;;;;;;;;;;6246765;22;20247;-90
2023/10/01 08:00:25;;;;;;;7.38;4.28;;;;;;;;;;6246013;22;20182;-91
2023/10/01 08:03:32;;;;;;;8.57;5.03;;;;;;;;;;6242394;22;20210;-90
2023/10/01 08:06:42;;;;;;;7.55;4.40;;;;;;;;;;6242942;22;20182;-91
2023/10/01 08:09:51;;;;;;;5.80;3.90;;;;;;;;;;6244229;22;20173;-89
2023/10/01 08:13:05;;;;;;;6.18;4.00;;;;;;;;;;6245934;22;20223;-90
2023/10/01 08:16:13;;;;;;;7.43;4.40;;;;;;;;;;6241943;22;20253;-89
2023/10/01 08:19:22;;;;;;;6.55;4.50;;;;;;;;;;6238991;23;20178;-89
2023/10/01 08:22:43;;;;;;;5.82;4.07;;;;;;;;;;6239857;22;20218;-90
2023/10/01 08:25:51;;;;;;;11.75;5.85;;;;;;;;;;6239159;22;20239;-92
2023/10/01 08:28:57;;;;;;;9.95;5.70;;;;;;;;;;6239384;23;20364;-91
2023/10/01 08:32:09;;;;;;;10.38;5.93;;;;;;;;;;6238573;22;20178;-91
2023/10/01 08:35:22;;;;;;;12.65;6.30;;;;;;;;;;6239527;22;20162;-90
2023/10/01 08:38:34;;;;;;;10.65;5.28;;;;;;;;;;6241371;22;20166;-92
2023/10/01 08:41:50;;;;;;;8.40;5.45;;;;;;;;;;6238625;23;20178;-90
2023/10/01 08:45:02;;;;;;;11.27;5.28;;;;;;;;;;6240619;23;20202;-89
2023/10/01 08:48:09;;;;;;;8.15;5.00;;;;;;;;;;6238482;23;20170;-90
2023/10/01 08:51:16;;;;;;;8.07;4.93;;;;;;;;;;6240717;23;20621;-91
2023/10/01 08:54:24;;;;;;;9.30;5.40;;;;;;;;;;6239455;22;20301;-92
2023/10/01 08:57:45;;;;;;;9.70;4.90;;;;;;;;;;6240491;22;20214;-90
2023/10/01 09:00:52;;;;;;;11.27;5.75;;;;;;;;;;6239237;23;20194;-88
2023/10/01 09:04:29;;;;;;;9.15;4.90;;;;;;;;;;6239645;22;20217;-89
2023/10/01 09:07:40;;;;;;;7.28;4.68;;;;;;;;;;6239786;23;20171;-90
2023/10/01 09:10:53;;;;;;;9.63;5.28;;;;;;;;;;6241286;22;20179;-92
2023/10/01 09:14:14;;;;;;;9.60;5.80;;;;;;;;;;6241727;23;20230;-90
2023/10/01 09:17:24;;;;;;;8.27;4.93;;;;;;;;;;6241053;23;20174;-90
2023/10/01 09:21:03;;;;;;;10.20;5.30;;;;;;;;;;6240589;22;20749;-91
2023/10/01 09:24:33;;;;;;;12.23;6.18;;;;;;;;;;6242671;23;20170;-91
2023/10/01 09:27:57;;;;;;;10.93;6.15;;;;;;;;;;6240778;23;20175;-93
2023/10/01 09:31:26;;;;;;;8.18;5.28;;;;;;;;;;6241070;23;20243;-91
2023/10/01 09:34:35;;;;;;;9.55;5.53;;;;;;;;;;6244618;22;20170;-92
2023/10/01 09:37:52;;;;;;;11.52;6.20;;;;;;;;;;6241101;23;20189;-90
2023/10/01 09:40:58;;;;;;;11.10;5.80;;;;;;;;;;6240218;22;20222;-91
2023/10/01 09:44:04;;;;;;;10.55;5.30;;;;;;;;;;6240414;23;20194;-93
2023/10/01 09:47:11;;;;;;;10.15;5.50;;;;;;;;;;6240907;23;20286;-92
2023/10/01 09:50:18;;;;;;;11.07;5.63;;;;;;;;;;6238587;23;20221;-89
2023/10/01 09:53:26;;;;;;;12.77;5.80;;;;;;;;;;6243076;22;20677;-90
2023/10/01 09:56:46;;;;;;;10.55;5.20;;;;;;;;;;6242370;22;20206;-91
2023/10/01 09:59:52;;;;;;;12.55;5.50;;;;;;;;;;6244351;22;20209;-91
2023/10/01 10:02:57;;;;;;;11.00;5.70;;;;;;;;;;6242560;23;20194;-91
2023/10/01 10:06:06;;;;;;;10.75;5.00;;;;;;;;;;6243773;22;20170;-90
2023/10/01 10:09:25;;;;;;;8.43;4.55;;;;;;;;;;6240431;23;20170;-90
2023/10/01 10:12:35;;;;;;;13.38;5.20;;;;;;;;;;6241665;23;20190;-90
2023/10/01 10:15:56;;;;;;;10.50;4.88;;;;;;;;;;6240623;23;20244;-92
2023/10/01 10:19:05;;;;;;;12.80;4.72;;;;;;;;;;6240474;23;20171;-89
2023/10/01 10:22:17;;;;;;;12.05;5.05;;;;;;;;;;6242754;22;20174;-88
2023/10/01 10:25:25;;;;;;;8.80;4.72;;;;;;;;;;6242618;22;20622;-91
2023/10/01 10:28:51;;;;;;;10.07;5.05;;;;;;;;;;6242531;23;20175;-92
2023/10/01 10:32:09;;;;;;;12.57;4.50;;;;;;;;;;6239201;23;20159;-93
2023/10/01 10:35:20;;;;;;;9.00;4.40;;;;;;;;;;6240694;23;20257;-90
2023/10/01 10:38:51;;;;;;;11.27;4.25;;;;;;;;;;6239563;22;20171;-92
2023/10/01 10:42:15;;;;;;;12.30;4.30;;;;;;;;;;6239674;23;20186;-89
2023/10/01 10:45:22;;;;;;;13.18;5.18;;;;;;;;;;6243590;23;20197;-90
2023/10/01 10:48:46;;;;;;;11.45;4.20;;;;;;;;;;6240182;23;20221;-91
2023/10/01 10:51:55;;;;;;;12.07;4.72;;;;;;;;;;6241093;22;20166;-92
2023/10/01 10:55:15;;;;;;;14.55;4.95;;;;;;;;;;6239995;23;20167;-89
2023/10/01 10:58:22;;;;;;;11.38;3.92;;;;;;;;;;6240081;22;20170;-91
2023/10/01 11:01:43;;;;;;;13.93;4.18;;;;;;;;;;6240380;23;20189;-92
2023/10/01 11:04:47;;;;;;;10.57;4.13;;;;;;;;;;6241865;23;20285;-92
2023/10/01 11:07:58;;;;;;;16.85;4.82;;;;;;;;;;6240943;23;20167;-91
2023/10/01 11:11:10;;;;;;;33.58;18.13;;;;;;;;;;6239631;23;20172;-91
2023/10/01 11:14:17;;;;;;;16.40;7.65;;;;;;;;;;6242258;22;20228;-91
2023/10/01 11:17:24;;;;;;;14.90;4.90;;;;;;;;;;6242072;22;20217;-91
2023/10/01 11:20:33;;;;;;;14.95;4.40;;;;;;;;;;6243067;22;20174;-90
2023/10/01 11:23:38;;;;;;;12.93;4.93;;;;;;;;;;6247176;22;20273;-89
2023/10/01 11:27:11;;;;;;;11.70;4.63;;;;;;;;;;6241769;23;20167;-92
2023/10/01 11:30:20;;;;;;;12.70;5.07;;;;;;;;;;6240849;22;20178;-91
2023/10/01 11:33:30;;;;;;;12.18;5.30;;;;;;;;;;6241833;23;20249;-90
2023/10/01 11:36:39;;;;;;;15.38;5.18;;;;;;;;;;6239598;23;20177;-93
2023/10/01 11:39:50;;;;;;;12.98;5.22;;;;;;;;;;6239386;23;20243;-92
2023/10/01 11:43:05;;;;;;;14.35;5.63;;;;;;;;;;6242164;23;20185;-90
2023/10/01 11:46:20;;;;;;;13.30;5.25;;;;;;;;;;6243299;23;20166;-92
2023/10/01 11:53:03;;;;;;;15.48;6.13;;;;;;;;;;6260203;23;20150;-90
2023/10/01 11:56:11;;;;;;;13.68;5.25;;;;;;;;;;6241438;22;20166;-92
2023/10/01 11:59:20;;;;;;;22.15;5.55;;;;;;;;;;6242361;23;20242;-90
2023/10/01 12:02:26;;;;;;;12.98;5.22;;;;;;;;;;6241921;22;20182;-90
2023/10/01 12:05:41;;;;;;;14.45;5.20;;;;;;;;;;6243856;23;20197;-93
2023/10/01 12:08:47;;;;;;;19.35;6.88;;;;;;;;;;6241462;23;20174;-90
2023/10/01 12:12:05;;;;;;;16.05;5.85;;;;;;;;;;6243953;22;20170;-91
2023/10/01 12:18:44;;;;;;;15.95;4.97;;;;;;;;;;6242225;23;20162;-92
2023/10/01 12:22:05;;;;;;;18.02;5.20;;;;;;;;;;6242508;23;20174;-91
2023/10/01 12:25:12;;;;;;;15.80;5.68;;;;;;;;;;6241826;23;20164;-92
2023/10/01 12:28:19;;;;;;;15.25;5.85;;;;;;;;;;6241376;23;20500;-90
2023/10/01 12:31:24;;;;;;;15.18;5.68;;;;;;;;;;6245568;23;20697;-91
2023/10/01 12:34:29;;;;;;;24.83;7.50;;;;;;;;;;6243284;23;20209;-90
2023/10/01 12:37:38;;;;;;;16.50;5.80;;;;;;;;;;6242584;23;20182;-91
2023/10/01 12:40:49;;;;;;;16.20;6.35;;;;;;;;;;6241104;23;20154;-91
2023/10/01 12:44:14;;;;;;;17.13;6.68;;;;;;;;;;6241399;23;20194;-91
2023/10/01 12:47:18;;;;;;;17.38;5.95;;;;;;;;;;6245588;23;20234;-91
2023/10/01 12:50:26;;;;;;;16.42;5.82;;;;;;;;;;6246521;23;20170;-90
2023/10/01 12:53:47;;;;;;;18.65;6.32;;;;;;;;;;6246175;23;20162;-91
2023/10/01 12:57:09;;;;;;;20.38;6.35;;;;;;;;;;6248488;22;20161;-93
2023/10/01 13:03:42;;;;;;;15.68;5.40;;;;;;;;;;6264654;23;20190;-92
2023/10/01 13:06:46;;;;;;;16.20;6.00;;;;;;;;;;6246074;22;20589;-92
2023/10/01 13:09:58;;;;;;;17.98;6.07;;;;;;;;;;6245946;23;20170;-93
2023/10/01 13:13:05;;;;;;;23.23;6.82;;;;;;;;;;6245996;22;20498;-92
2023/10/01 13:16:16;;;;;;;19.15;6.70;;;;;;;;;;6246571;23;20644;-91
2023/10/01 13:19:26;;;;;;;24.08;6.88;;;;;;;;;;6246940;22;20174;-90
2023/10/01 13:22:31;;;;;;;17.52;6.75;;;;;;;;;;6245385;22;20518;-93
2023/10/01 13:25:39;;;;;;;18.40;6.65;;;;;;;;;;6243769;22;20170;-94
2023/10/01 13:28:47;;;;;;;18.30;6.07;;;;;;;;;;6263246;23;20166;-92
2023/10/01 13:32:02;;;;;;;18.77;6.25;;;;;;;;;;6243875;23;20237;-89
2023/10/01 14:33:27;;;;;;;15.40;6.78;;;;;;;;;;6117126;23;20168;-92
2023/10/01 14:36:33;;;;;;;23.02;7.40;;;;;;;;;;6102922;23;20723;-92
2023/10/01 14:39:39;;;;;;;18.45;6.95;;;;;;;;;;6099454;23;20181;-90
2023/10/01 14:42:45;;;;;;;16.17;6.00;;;;;;;;;;6103157;23;20161;-92
2023/10/01 14:45:51;;;;;;;18.67;6.30;;;;;;;;;;6101132;23;20227;-92
2023/10/01 14:49:04;;;;;;;16.00;5.88;;;;;;;;;;6096779;23;20187;-92
2023/10/01 14:52:22;;;;;;;14.07;5.88;;;;;;;;;;6095173;23;20178;-93
2023/10/01 14:55:27;;;;;;;17.02;6.97;;;;;;;;;;6096610;23;20156;-89
2023/10/01 14:58:34;;;;;;;20.65;6.55;;;;;;;;;;6097006;23;20217;-91
2023/10/01 15:01:41;;;;;;;19.00;6.65;;;;;;;;;;6095460;23;20173;-91
2023/10/01 15:04:47;;;;;;;16.05;6.22;;;;;;;;;;6095390;23;20669;-92
2023/10/01 15:07:52;;;;;;;15.07;6.22;;;;;;;;;;6096540;23;20285;-91
2023/10/01 15:10:58;;;;;;;15.07;6.30;;;;;;;;;;6098419;23;20217;-89
2023/10/01 15:14:11;;;;;;;20.58;9.90;;;;;;;;;;6100270;23;20169;-92
2023/10/01 15:20:49;;;;;;;16.95;6.22;;;;;;;;;;6100046;23;20253;-90
2023/10/01 15:24:00;;;;;;;15.50;5.60;;;;;;;;;;6097048;23;20700;-88
2023/10/01 15:27:05;;;;;;;17.45;6.22;;;;;;;;;;6097581;23;20196;-92
2023/10/01 15:30:21;;;;;;;18.25;6.80;;;;;;;;;;6098981;23;20193;-89
2023/10/01 15:36:48;;;;;;;16.92;6.20;;;;;;;;;;6094739;23;20246;-90
2023/10/01 15:39:54;;;;;;;19.02;6.68;;;;;;;;;;6095417;23;20176;-92
2023/10/01 15:42:59;;;;;;;21.52;7.07;;;;;;;;;;6095993;23;20531;-92
2023/10/01 15:46:13;;;;;;;16.42;6.95;;;;;;;;;;6097909;23;20169;-92
2023/10/01 15:49:21;;;;;;;18.60;6.57;;;;;;;;;;6094951;23;20198;-90
2023/10/01 15:52:37;;;;;;;18.85;6.18;;;;;;;;;;6096893;23;20191;-88
2023/10/01 15:55:55;;;;;;;19.55;6.53;;;;;;;;;;6097450;23;20174;-90
2023/10/01 15:59:10;;;;;;;27.92;13.05;;;;;;;;;;6096428;23;20298;-91
2023/10/01 16:02:19;;;;;;;16.40;6.38;;;;;;;;;;6098121;23;20157;-91
2023/10/01 16:05:39;;;;;;;18.08;6.32;;;;;;;;;;6094282;23;20169;-89
2023/10/01 16:08:45;;;;;;;15.77;6.00;;;;;;;;;;6095006;23;20174;-93
2023/10/01 16:12:06;;;;;;;16.08;6.40;;;;;;;;;;6098027;23;20218;-93
2023/10/01 16:15:12;;;;;;;17.63;6.20;;;;;;;;;;6096895;23;20158;-92
2023/10/01 16:18:17;;;;;;;16.50;6.25;;;;;;;;;;6095146;23;20189;-91
2023/10/01 16:21:31;;;;;;;18.13;6.55;;;;;;;;;;6095901;23;20265;-86
2023/10/01 16:24:39;;;;;;;23.35;7.07;;;;;;;;;;6096765;23;20194;-90
2023/10/01 16:27:44;;;;;;;21.33;6.85;;;;;;;;;;6099061;23;20245;-92
2023/10/01 16:30:52;;;;;;;26.25;10.00;;;;;;;;;;6096603;23;20181;-89
2023/10/01 16:33:59;;;;;;;25.02;10.65;;;;;;;;;;6095407;23;20257;-91
2023/10/01 16:37:06;;;;;;;23.13;8.10;;;;;;;;;;6097014;23;20186;-92
2023/10/01 16:40:18;;;;;;;24.73;8.98;;;;;;;;;;6096439;23;20217;-91
2023/10/01 16:43:32;;;;;;;19.95;7.43;;;;;;;;;;6095591;23;20178;-91
2023/10/01 16:46:41;;;;;;;22.08;7.35;;;;;;;;;;6097037;23;20193;-91
2023/10/01 16:49:47;;;;;;;17.42;7.18;;;;;;;;;;6112350;23;20727;-92
2023/10/01 16:53:00;;;;;;;20.20;9.32;;;;;;;;;;6095777;23;20203;-91
2023/10/01 16:56:12;;;;;;;23.92;8.18;;;;;;;;;;6098623;23;20185;-90
2023/10/01 16:59:21;;;;;;;20.95;7.05;;;;;;;;;;6095789;23;20671;-91
2023/10/01 17:02:29;;;;;;;23.02;7.03;;;;;;;;;;6096308;23;20157;-91
2023/10/01 17:05:38;;;;;;;23.90;7.65;;;;;;;;;;6095150;23;20225;-88
2023/10/01 17:08:46;;;;;;;16.02;7.10;;;;;;;;;;6076843;23;20285;-91
2023/10/01 17:11:51;;;;;;;18.98;7.95;;;;;;;;;;6095096;23;20637;-89
2023/10/01 17:14:57;;;;;;;21.80;8.68;;;;;;;;;;6097900;23;20227;-89
2023/10/01 17:18:04;;;;;;;25.45;8.60;;;;;;;;;;6095568;23;20174;-90
2023/10/01 17:21:23;;;;;;;25.38;9.15;;;;;;;;;;6095535;23;20222;-89
2023/10/01 17:24:30;;;;;;;20.65;7.78;;;;;;;;;;6095633;23;20249;-90
2023/10/01 17:27:36;;;;;;;21.15;8.75;;;;;;;;;;6095130;23;20246;-92
2023/10/01 17:30:46;;;;;;;20.63;9.32;;;;;;;;;;6096337;23;20194;-92
2023/10/01 17:34:00;;;;;;;24.33;8.68;;;;;;;;;;6096891;23;20202;-91
2023/10/01 17:37:07;;;;;;;24.23;8.48;;;;;;;;;;6094882;23;20210;-90
2023/10/01 17:40:17;;;;;;;23.00;7.80;;;;;;;;;;6095287;23;20484;-91
2023/10/01 17:43:27;;;;;;;23.38;8.50;;;;;;;;;;6094971;23;20173;-91
2023/10/01 17:46:36;;;;;;;41.17;18.83;;;;;;;;;;6094668;23;20177;-91
2023/10/01 17:49:45;;;;;;;23.33;9.57;;;;;;;;;;6094450;23;20182;-90
2023/10/01 17:52:55;;;;;;;50.58;23.17;;;;;;;;;;6098121;23;20175;-90
2023/10/01 17:56:03;;;;;;;68.43;32.97;;;;;;;;;;6095390;23;20621;-91
2023/10/01 17:59:13;;;;;;;41.30;18.13;;;;;;;;;;6093411;23;20288;-87
2023/10/01 18:02:19;;;;;;;53.20;27.70;;;;;;;;;;6095303;23;20170;-87
2023/10/01 18:05:25;;;;;;;52.53;26.25;;;;;;;;;;6093556;23;20173;-89
2023/10/01 18:08:35;;;;;;;43.08;20.92;;;;;;;;;;6092746;23;20193;-92
2023/10/01 18:11:44;;;;;;;51.92;23.00;;;;;;;;;;6095533;23;20251;-90
2023/10/01 18:14:50;;;;;;;51.38;23.80;;;;;;;;;;6094515;23;20177;-92
2023/10/01 18:17:55;;;;;;;23.70;9.52;;;;;;;;;;6092470;23;20209;-90
2023/10/01 18:21:05;;;;;;;19.65;7.65;;;;;;;;;;6093684;23;20166;-88
2023/10/01 18:24:10;;;;;;;73.32;17.02;;;;;;;;;;6094873;23;20177;-90
2023/10/01 18:27:23;;;;;;;80.43;20.33;;;;;;;;;;6093247;23;20221;-89
2023/10/01 18:30:29;;;;;;;40.42;11.63;;;;;;;;;;6095456;23;20200;-88
2023/10/01 18:33:35;;;;;;;47.78;14.20;;;;;;;;;;6093995;23;20723;-89
2023/10/01 18:36:40;;;;;;;78.97;21.88;;;;;;;;;;6095027;23;20153;-88
2023/10/01 18:39:47;;;;;;;50.42;14.27;;;;;;;;;;6096647;23;20169;-92
2023/10/01 18:42:55;;;;;;;44.42;12.82;;;;;;;;;;6092688;23;20193;-91
2023/10/01 18:46:02;;;;;;;45.13;13.32;;;;;;;;;;6092935;23;20170;-92
2023/10/01 18:49:12;;;;;;;40.60;11.45;;;;;;;;;;6093695;23;20201;-92
2023/10/01 18:52:20;;;;;;;27.17;8.90;;;;;;;;;;6095560;23;20174;-88
2023/10/01 18:55:27;;;;;;;29.92;10.63;;;;;;;;;;6096119;23;20173;-90
2023/10/01 18:58:35;;;;;;;35.25;11.20;;;;;;;;;;6094790;23;20173;-88
2023/10/01 19:01:41;;;;;;;31.23;9.75;;;;;;;;;;6094932;23;20157;-91
2023/10/01 19:04:46;;;;;;;22.90;8.48;;;;;;;;;;6095594;23;20228;-93
2023/10/01 19:07:51;;;;;;;24.25;8.35;;;;;;;;;;6095586;23;20201;-90
2023/10/01 19:10:59;;;;;;;27.35;9.35;;;;;;;;;;6095389;23;20221;-92
2023/10/01 19:14:06;;;;;;;22.40;8.25;;;;;;;;;;6095508;23;20622;-90
2023/10/01 19:17:11;;;;;;;25.83;8.13;;;;;;;;;;6111274;23;20243;-88
2023/10/01 19:20:16;;;;;;;21.13;7.95;;;;;;;;;;6094047;23;20218;-89
2023/10/01 19:23:30;;;;;;;19.33;7.68;;;;;;;;;;6093967;23;20169;-90
2023/10/01 19:26:35;;;;;;;21.25;7.20;;;;;;;;;;6095666;23;20247;-91
2023/10/01 19:29:43;;;;;;;20.73;7.70;;;;;;;;;;6095303;23;20265;-91
2023/10/01 19:32:49;;;;;;;25.45;7.40;;;;;;;;;;6093585;23;20236;-90
2023/10/01 19:35:56;;;;;;;23.25;7.00;;;;;;;;;;6096138;23;20165;-94
2023/10/01 19:39:02;;;;;;;19.92;8.10;;;;;;;;;;6095480;23;20281;-93
2023/10/01 19:42:09;;;;;;;19.92;7.93;;;;;;;;;;6096777;23;20149;-91
2023/10/01 19:45:24;;;;;;;18.80;7.45;;;;;;;;;;6114969;23;20219;-93
2023/10/01 19:48:30;;;;;;;21.67;6.97;;;;;;;;;;6100819;23;20199;-91
2023/10/01 19:51:42;;;;;;;18.90;7.38;;;;;;;;;;6099120;23;20174;-92
2023/10/01 19:54:48;;;;;;;21.60;7.95;;;;;;;;;;6096651;23;20489;-91
2023/10/01 19:57:53;;;;;;;23.98;8.05;;;;;;;;;;6098689;23;20226;-92
2023/10/01 20:01:05;;;;;;;21.67;7.50;;;;;;;;;;6130589;23;20187;-91
2023/10/01 20:04:13;;;;;;;24.73;7.78;;;;;;;;;;6097327;23;20199;-92
2023/10/01 20:07:28;;;;;;;18.25;6.68;;;;;;;;;;6096427;23;20665;-93
2023/10/01 20:10:33;;;;;;;20.25;6.82;;;;;;;;;;6096473;23;20178;-89
2023/10/01 20:13:39;;;;;;;22.10;8.70;;;;;;;;;;6095404;23;20170;-93
2023/10/01 20:16:47;;;;;;;21.02;7.90;;;;;;;;;;6096411;23;20179;-93